createdAt,value
2023-05-25T00:00:13.562Z,10.00
2023-05-25T00:01:15.904Z,12.20
2023-05-25T00:02:18.213Z,12.90
2023-05-25T00:03:21.814Z,11.90
2023-05-25T00:04:25.984Z,13.20
2023-05-25T00:05:28.329Z,12.60
2023-05-25T00:06:35.673Z,12.30
2023-05-25T00:07:38.743Z,14.70
2023-05-25T00:08:41.059Z,8.70
2023-05-25T00:09:43.910Z,11.70
2023-05-25T00:10:46.413Z,13.00
2023-05-25T00:11:48.461Z,13.30
2023-05-25T00:12:50.702Z,14.50
2023-05-25T00:13:53.838Z,13.90
2023-05-25T00:14:56.049Z,11.60
2023-05-25T00:15:58.327Z,12.60
2023-05-25T00:17:02.526Z,13.40
2023-05-25T00:18:05.934Z,13.30
2023-05-25T00:19:09.917Z,11.00
2023-05-25T00:20:14.301Z,11.50
2023-05-25T00:21:17.648Z,13.60
2023-05-25T00:22:19.947Z,11.90
2023-05-25T00:23:22.263Z,12.60
2023-05-25T00:24:24.827Z,12.90
2023-05-25T00:25:26.973Z,8.10
2023-05-25T00:26:29.429Z,13.50
2023-05-25T00:27:31.813Z,10.60
2023-05-25T00:28:34.075Z,12.60
2023-05-25T00:29:37.300Z,12.00
2023-05-25T00:30:40.011Z,14.70
2023-05-25T00:31:42.413Z,13.30
2023-05-25T00:32:45.243Z,12.20
2023-05-25T00:33:47.626Z,13.00
2023-05-25T00:34:50.120Z,11.10
2023-05-25T00:35:53.637Z,11.80
2023-05-25T00:36:56.664Z,11.90
2023-05-25T00:37:58.936Z,12.30
2023-05-25T00:39:01.329Z,12.10
2023-05-25T00:40:06.220Z,12.00
2023-05-25T00:41:08.746Z,11.80
2023-05-25T00:42:11.805Z,11.40
2023-05-25T00:43:13.935Z,11.82
2023-05-25T00:44:18.401Z,11.80
2023-05-25T00:45:21.234Z,12.70
2023-05-25T00:46:24.954Z,12.73
2023-05-25T00:47:29.931Z,11.40
2023-05-25T00:48:33.185Z,13.40
2023-05-25T00:49:36.314Z,11.80
2023-05-25T00:50:42.959Z,11.20
2023-05-25T00:51:47.144Z,10.20
2023-05-25T00:52:49.749Z,12.00
2023-05-25T00:53:52.046Z,11.00
2023-05-25T00:54:59.148Z,13.00
2023-05-25T00:56:14.127Z,12.10
2023-05-25T00:57:20.562Z,11.40
2023-05-25T00:58:26.345Z,11.80
2023-05-25T00:59:36.544Z,13.10
2023-05-25T01:00:42.445Z,11.40
2023-05-25T01:01:47.024Z,12.60
2023-05-25T01:02:53.300Z,12.00
2023-05-25T01:03:59.091Z,11.10
2023-05-25T01:05:04.686Z,11.30
2023-05-25T01:06:11.119Z,11.60
2023-05-25T01:07:19.509Z,12.00
2023-05-25T01:08:24.252Z,11.50
2023-05-25T01:09:29.647Z,8.20
2023-05-25T01:10:35.247Z,11.80
2023-05-25T01:11:41.128Z,11.50
2023-05-25T01:12:45.613Z,11.50
2023-05-25T01:13:51.630Z,12.90
2023-05-25T01:14:55.449Z,12.50
2023-05-25T01:16:01.237Z,13.30
2023-05-25T01:17:06.051Z,12.30
2023-05-25T01:18:09.041Z,15.40
2023-05-25T01:19:11.261Z,14.20
2023-05-25T01:20:13.673Z,13.90
2023-05-25T01:21:39.496Z,13.50
2023-05-25T01:22:45.639Z,16.30
2023-05-25T01:23:54.306Z,18.20
2023-05-25T01:25:01.701Z,19.40
2023-05-25T01:26:08.282Z,17.20
2023-05-25T01:27:14.035Z,18.80
2023-05-25T01:28:20.742Z,13.10
2023-05-25T01:29:25.828Z,19.60
2023-05-25T01:30:31.735Z,17.20
2023-05-25T01:31:37.893Z,20.00
2023-05-25T01:32:43.039Z,16.80
2023-05-25T01:33:46.677Z,18.20
2023-05-25T01:34:52.873Z,19.20
2023-05-25T01:35:56.271Z,15.50
2023-05-25T01:36:59.190Z,17.10
2023-05-25T01:38:05.753Z,18.00
2023-05-25T01:39:10.879Z,16.30
2023-05-25T01:40:15.140Z,20.00
2023-05-25T01:41:17.433Z,19.10
2023-05-25T01:42:20.219Z,17.80
2023-05-25T01:43:22.476Z,17.70
2023-05-25T01:44:26.217Z,19.40
2023-05-25T01:45:30.530Z,16.90
2023-05-25T01:46:36.607Z,16.00
2023-05-25T01:48:00.170Z,18.50
2023-05-25T01:49:08.798Z,16.60
2023-05-25T01:50:19.072Z,16.70
2023-05-25T01:51:42.946Z,17.20
2023-05-25T01:52:48.753Z,17.10
2023-05-25T01:53:57.269Z,15.30
2023-05-25T01:55:10.789Z,15.20
2023-05-25T01:56:14.465Z,15.50
2023-05-25T01:57:19.250Z,15.00
2023-05-25T01:58:24.342Z,14.70
2023-05-25T01:59:30.833Z,14.20
2023-05-25T02:00:35.564Z,14.00
2023-05-25T02:01:39.411Z,13.90
2023-05-25T02:02:44.102Z,14.80
2023-05-25T02:03:49.968Z,13.50
2023-05-25T02:04:54.353Z,12.90
2023-05-25T02:05:58.604Z,13.00
2023-05-25T02:07:04.106Z,14.00
2023-05-25T02:08:06.445Z,14.80
2023-05-25T02:09:08.705Z,12.70
2023-05-25T02:10:11.113Z,14.10
2023-05-25T02:11:14.258Z,13.20
2023-05-25T02:12:16.866Z,12.30
2023-05-25T02:13:19.040Z,12.20
2023-05-25T02:14:21.486Z,11.00
2023-05-25T02:15:24.461Z,11.20
2023-05-25T02:16:26.998Z,12.40
2023-05-25T02:17:29.667Z,12.00
2023-05-25T02:18:31.926Z,11.60
2023-05-25T02:19:35.084Z,12.00
2023-05-25T02:20:37.788Z,11.50
2023-05-25T02:21:41.820Z,12.30
2023-05-25T02:22:44.243Z,13.70
2023-05-25T02:23:47.234Z,11.50
2023-05-25T02:24:50.176Z,12.45
2023-05-25T02:25:52.497Z,12.40
2023-05-25T02:26:54.873Z,14.90
2023-05-25T02:27:57.831Z,12.00
2023-05-25T02:29:01.420Z,12.30
2023-05-25T02:30:05.184Z,11.10
2023-05-25T02:31:08.672Z,10.60
2023-05-25T02:32:10.849Z,14.60
2023-05-25T02:33:13.633Z,12.10
2023-05-25T02:34:16.086Z,12.55
2023-05-25T02:35:18.466Z,11.90
2023-05-25T02:36:21.311Z,11.20
2023-05-25T02:37:23.697Z,11.91
2023-05-25T02:38:26.623Z,11.60
2023-05-25T02:39:29.207Z,12.10
2023-05-25T02:40:33.283Z,12.40
2023-05-25T02:41:35.730Z,14.30
2023-05-25T02:42:38.129Z,12.40
2023-05-25T02:43:40.644Z,13.30
2023-05-25T02:44:44.997Z,13.70
2023-05-25T02:45:48.049Z,10.90
2023-05-25T02:46:50.657Z,12.91
2023-05-25T02:47:53.098Z,12.30
2023-05-25T02:48:59.020Z,13.00
2023-05-25T02:50:01.823Z,11.80
2023-05-25T02:51:04.727Z,13.64
2023-05-25T02:52:07.439Z,13.36
2023-05-25T02:53:10.508Z,12.60
2023-05-25T02:54:13.493Z,14.30
2023-05-25T02:55:17.525Z,11.50
2023-05-25T02:56:23.246Z,11.40
2023-05-25T02:57:27.258Z,12.70
2023-05-25T02:58:29.814Z,11.60
2023-05-25T02:59:34.061Z,13.00
2023-05-25T03:00:37.318Z,12.20
2023-05-25T03:01:40.192Z,12.00
2023-05-25T03:02:42.695Z,14.27
2023-05-25T03:03:46.605Z,12.20
2023-05-25T03:04:49.843Z,12.70
2023-05-25T03:05:53.739Z,13.50
2023-05-25T03:06:56.980Z,12.20
2023-05-25T03:07:59.420Z,13.40
2023-05-25T03:09:04.561Z,13.10
2023-05-25T03:10:08.806Z,10.20
2023-05-25T03:11:11.956Z,14.20
2023-05-25T03:12:14.709Z,14.20
2023-05-25T03:13:17.724Z,12.60
2023-05-25T03:14:20.776Z,13.00
2023-05-25T03:15:33.938Z,14.80
2023-05-25T03:16:38.209Z,12.10
2023-05-25T03:17:41.069Z,13.30
2023-05-25T03:18:43.208Z,11.80
2023-05-25T03:19:45.761Z,13.00
2023-05-25T03:20:48.658Z,13.80
2023-05-25T03:21:51.020Z,11.50
2023-05-25T03:22:55.457Z,13.50
2023-05-25T03:23:58.946Z,11.60
2023-05-25T03:25:02.314Z,12.60
2023-05-25T03:26:05.032Z,13.50
2023-05-25T03:27:08.399Z,12.90
2023-05-25T03:28:11.582Z,12.40
2023-05-25T03:29:15.474Z,12.36
2023-05-25T03:30:18.239Z,10.40
2023-05-25T03:31:21.175Z,11.10
2023-05-25T03:32:23.679Z,10.20
2023-05-25T03:33:26.037Z,11.00
2023-05-25T03:34:29.321Z,9.90
2023-05-25T03:35:31.810Z,10.70
2023-05-25T03:36:34.685Z,10.09
2023-05-25T03:37:37.164Z,10.60
2023-05-25T03:38:40.102Z,12.00
2023-05-25T03:39:42.367Z,12.30
2023-05-25T03:40:45.428Z,10.55
2023-05-25T03:41:48.533Z,10.30
2023-05-25T03:42:51.709Z,10.50
2023-05-25T03:43:54.098Z,10.10
2023-05-25T03:44:56.525Z,9.90
2023-05-25T03:45:59.127Z,10.70
2023-05-25T03:47:01.452Z,11.80
2023-05-25T03:48:05.214Z,11.82
2023-05-25T03:49:09.801Z,12.80
2023-05-25T03:50:13.044Z,9.10
2023-05-25T03:51:16.041Z,11.20
2023-05-25T03:52:18.435Z,10.36
2023-05-25T03:53:21.474Z,12.00
2023-05-25T03:54:24.039Z,9.90
2023-05-25T03:55:27.832Z,12.60
2023-05-25T03:56:31.006Z,10.30
2023-05-25T03:57:33.268Z,11.20
2023-05-25T03:58:35.452Z,10.20
2023-05-25T03:59:37.696Z,12.00
2023-05-25T04:00:41.798Z,10.40
2023-05-25T04:01:45.093Z,9.50
2023-05-25T04:02:48.035Z,8.70
2023-05-25T04:03:50.843Z,9.64
2023-05-25T04:04:53.829Z,10.40
2023-05-25T04:05:57.746Z,10.55
2023-05-25T04:07:00.362Z,9.70
2023-05-25T04:08:04.605Z,9.70
2023-05-25T04:09:07.336Z,9.40
2023-05-25T04:10:12.249Z,9.50
2023-05-25T04:11:14.931Z,9.50
2023-05-25T04:12:17.424Z,9.60
2023-05-25T04:13:20.483Z,7.70
2023-05-25T04:14:23.050Z,8.00
2023-05-25T04:15:26.115Z,10.27
2023-05-25T04:16:30.651Z,9.70
2023-05-25T04:17:39.037Z,9.30
2023-05-25T04:18:41.498Z,9.60
2023-05-25T04:19:44.180Z,8.90
2023-05-25T04:20:47.258Z,9.00
2023-05-25T04:21:53.301Z,9.00
2023-05-25T04:22:56.667Z,9.40
2023-05-25T04:23:59.248Z,8.27
2023-05-25T04:25:02.055Z,9.45
2023-05-25T04:26:05.520Z,9.20
2023-05-25T04:27:08.390Z,9.50
2023-05-25T04:28:11.985Z,9.50
2023-05-25T04:29:17.003Z,9.10
2023-05-25T04:30:21.326Z,8.40
2023-05-25T04:31:26.521Z,8.50
2023-05-25T04:32:46.017Z,8.00
2023-05-25T04:33:55.113Z,8.20
2023-05-25T04:34:59.609Z,7.30
2023-05-25T04:36:06.420Z,8.60
2023-05-25T04:37:09.234Z,8.70
2023-05-25T04:38:14.207Z,6.70
2023-05-25T04:39:16.958Z,8.60
2023-05-25T04:40:21.397Z,7.10
2023-05-25T04:41:25.366Z,8.00
2023-05-25T04:42:29.467Z,9.10
2023-05-25T04:43:33.242Z,8.90
2023-05-25T04:44:37.141Z,9.10
2023-05-25T04:45:40.718Z,7.90
2023-05-25T04:46:44.116Z,9.45
2023-05-25T04:47:49.770Z,9.80
2023-05-25T04:48:52.654Z,7.70
2023-05-25T04:49:55.011Z,8.20
2023-05-25T04:51:00.324Z,8.80
2023-05-25T04:52:02.979Z,6.80
2023-05-25T04:53:06.532Z,8.40
2023-05-25T04:54:09.404Z,8.00
2023-05-25T04:55:12.460Z,8.60
2023-05-25T04:56:16.975Z,10.10
2023-05-25T04:57:19.291Z,10.60
2023-05-25T04:58:22.574Z,7.30
2023-05-25T04:59:25.577Z,8.10
2023-05-25T05:00:28.579Z,8.10
2023-05-25T05:01:34.182Z,7.00
2023-05-25T05:02:38.136Z,7.60
2023-05-25T05:03:41.173Z,8.60
2023-05-25T05:04:43.698Z,7.60
2023-05-25T05:05:46.693Z,8.40
2023-05-25T05:06:51.193Z,4.60
2023-05-25T05:07:55.628Z,5.80
2023-05-25T05:08:58.467Z,9.00
2023-05-25T05:10:01.309Z,6.91
2023-05-25T05:11:04.048Z,8.70
2023-05-25T05:12:09.489Z,8.70
2023-05-25T05:13:14.280Z,7.40
2023-05-25T05:14:17.573Z,8.10
2023-05-25T05:15:21.392Z,10.20
2023-05-25T05:16:26.275Z,10.10
2023-05-25T05:17:31.405Z,9.90
2023-05-25T05:18:34.669Z,8.50
2023-05-25T05:19:38.465Z,8.60
2023-05-25T05:20:42.980Z,9.40
2023-05-25T05:21:45.946Z,8.73
2023-05-25T05:22:48.579Z,7.20
2023-05-25T05:23:52.352Z,7.50
2023-05-25T05:24:54.906Z,8.10
2023-05-25T05:25:59.142Z,8.20
2023-05-25T05:28:06.423Z,8.50
2023-05-25T05:29:12.368Z,8.90
2023-05-25T05:30:15.765Z,10.20
2023-05-25T05:31:19.150Z,7.00
2023-05-25T05:32:21.712Z,8.00
2023-05-25T05:33:26.028Z,7.10
2023-05-25T05:34:30.978Z,8.60
2023-05-25T05:35:33.695Z,7.50
2023-05-25T05:36:48.834Z,7.40
2023-05-25T05:37:43.411Z,8.20
2023-05-25T05:38:47.106Z,7.00
2023-05-25T05:39:51.335Z,7.00
2023-05-25T05:40:54.011Z,7.90
2023-05-25T05:41:58.928Z,7.00
2023-05-25T05:43:02.428Z,7.90
2023-05-25T05:44:05.011Z,5.90
2023-05-25T05:45:07.934Z,5.70
2023-05-25T05:46:11.416Z,6.00
2023-05-25T05:47:15.400Z,5.40
2023-05-25T05:48:17.749Z,5.90
2023-05-25T05:49:21.654Z,5.09
2023-05-25T05:50:24.640Z,4.90
2023-05-25T05:51:27.491Z,5.50
2023-05-25T05:52:30.166Z,6.70
2023-05-25T05:53:34.618Z,4.90
2023-05-25T05:54:38.545Z,4.30
2023-05-25T05:55:43.127Z,5.30
2023-05-25T05:56:45.824Z,6.40
2023-05-25T05:57:48.491Z,0.40
2023-05-25T05:58:52.525Z,4.90
2023-05-25T05:59:54.806Z,5.70
2023-05-25T06:00:59.352Z,3.40
2023-05-25T06:02:01.891Z,5.30
2023-05-25T06:03:05.330Z,6.30
2023-05-25T06:04:08.865Z,6.70
2023-05-25T06:05:11.940Z,5.09
2023-05-25T06:06:16.439Z,4.80
2023-05-25T06:07:18.945Z,6.30
2023-05-25T06:08:22.507Z,5.10
2023-05-25T06:09:25.991Z,5.90
2023-05-25T06:10:28.501Z,6.55
2023-05-25T06:11:32.120Z,5.70
2023-05-25T06:12:35.342Z,4.30
2023-05-25T06:13:37.791Z,3.40
2023-05-25T06:14:40.371Z,6.50
2023-05-25T06:15:43.039Z,5.40
2023-05-25T06:16:47.667Z,5.50
2023-05-25T06:17:51.061Z,5.90
2023-05-25T06:18:53.706Z,5.70
2023-05-25T06:19:56.069Z,4.00
2023-05-25T06:21:00.200Z,5.50
2023-05-25T06:22:02.525Z,7.10
2023-05-25T06:23:05.257Z,6.10
2023-05-25T06:24:08.556Z,7.30
2023-05-25T06:25:12.739Z,4.20
2023-05-25T06:26:15.353Z,7.00
2023-05-25T06:27:17.710Z,7.20
2023-05-25T06:28:20.250Z,7.10
2023-05-25T06:29:24.502Z,6.30
2023-05-25T06:30:29.174Z,6.20
2023-05-25T06:31:31.754Z,6.20
2023-05-25T06:32:34.522Z,6.20
2023-05-25T06:33:37.384Z,7.09
2023-05-25T06:34:41.662Z,7.70
2023-05-25T06:35:44.340Z,7.30
2023-05-25T06:36:47.967Z,7.10
2023-05-25T06:37:51.070Z,6.90
2023-05-25T06:38:55.782Z,5.80
2023-05-25T06:39:59.662Z,5.00
2023-05-25T06:41:04.356Z,4.70
2023-05-25T06:42:08.607Z,7.40
2023-05-25T06:43:11.031Z,7.20
2023-05-25T06:44:15.362Z,8.60
2023-05-25T06:45:20.134Z,7.90
2023-05-25T06:46:23.972Z,6.20
2023-05-25T06:47:27.510Z,4.80
2023-05-25T06:48:30.616Z,8.40
2023-05-25T06:49:32.986Z,7.10
2023-05-25T06:50:35.561Z,8.00
2023-05-25T06:51:38.668Z,7.60
2023-05-25T06:52:41.075Z,6.90
2023-05-25T06:53:43.948Z,9.70
2023-05-25T06:54:46.781Z,8.64
2023-05-25T06:55:49.288Z,6.09
2023-05-25T06:56:51.750Z,8.40
2023-05-25T06:57:54.021Z,7.70
2023-05-25T06:58:57.677Z,9.20
2023-05-25T07:00:00.139Z,8.40
2023-05-25T07:01:06.214Z,9.30
2023-05-25T07:02:08.400Z,9.00
2023-05-25T07:03:10.746Z,7.90
2023-05-25T07:04:14.160Z,8.70
2023-05-25T07:05:17.525Z,7.90
2023-05-25T07:06:20.824Z,7.40
2023-05-25T07:07:24.345Z,8.30
2023-05-25T07:08:27.375Z,8.20
2023-05-25T07:09:30.084Z,8.50
2023-05-25T07:10:33.482Z,7.50
2023-05-25T07:11:37.525Z,6.00
2023-05-25T07:12:40.530Z,6.80
2023-05-25T07:13:42.995Z,7.80
2023-05-25T07:14:47.269Z,9.70
2023-05-25T07:15:49.912Z,8.70
2023-05-25T07:16:52.281Z,9.60
2023-05-25T07:17:56.555Z,9.20
2023-05-25T07:19:00.358Z,9.10
2023-05-25T07:20:05.630Z,1.70
2023-05-25T07:21:09.443Z,9.20
2023-05-25T07:22:12.965Z,8.50
2023-05-25T07:23:15.705Z,7.70
2023-05-25T07:24:18.428Z,9.40
2023-05-25T07:25:20.941Z,11.00
2023-05-25T07:26:25.102Z,10.30
2023-05-25T07:27:27.303Z,10.90
2023-05-25T07:28:29.451Z,9.20
2023-05-25T07:29:31.960Z,9.30
2023-05-25T07:30:35.849Z,9.10
2023-05-25T07:31:38.531Z,11.20
2023-05-25T07:32:42.143Z,11.30
2023-05-25T07:33:45.776Z,11.20
2023-05-25T07:34:48.286Z,9.60
2023-05-25T07:35:52.359Z,11.90
2023-05-25T07:36:56.287Z,10.90
2023-05-25T07:38:05.104Z,8.20
2023-05-25T07:39:08.848Z,10.80
2023-05-25T07:40:12.737Z,8.60
2023-05-25T07:41:15.202Z,10.70
2023-05-25T07:42:19.440Z,10.20
2023-05-25T07:43:21.660Z,10.20
2023-05-25T07:44:23.910Z,10.90
2023-05-25T07:45:26.633Z,13.20
2023-05-25T07:46:29.605Z,10.45
2023-05-25T07:47:32.256Z,8.80
2023-05-25T07:48:36.207Z,11.30
2023-05-25T07:49:38.591Z,12.30
2023-05-25T07:50:40.870Z,11.10
2023-05-25T07:52:57.487Z,12.00
2023-05-25T07:54:01.120Z,10.20
2023-05-25T07:55:04.599Z,10.00
2023-05-25T07:56:10.739Z,9.00
2023-05-25T07:57:13.278Z,14.40
2023-05-25T07:58:16.035Z,11.70
2023-05-25T07:59:18.854Z,12.45
2023-05-25T08:00:21.581Z,12.00
2023-05-25T08:01:26.232Z,10.00
2023-05-25T08:02:28.352Z,11.90
2023-05-25T08:03:48.404Z,10.80
2023-05-25T08:04:36.782Z,8.00
2023-05-25T08:05:40.262Z,10.70
2023-05-25T08:06:44.151Z,10.10
2023-05-25T08:07:47.510Z,9.40
2023-05-25T08:08:50.991Z,5.70
2023-05-25T08:09:53.226Z,10.80
2023-05-25T08:10:55.614Z,9.60
2023-05-25T08:12:18.539Z,13.20
2023-05-25T08:13:04.574Z,12.10
2023-05-25T08:14:06.954Z,14.50
2023-05-25T08:15:10.819Z,10.60
2023-05-25T08:16:14.491Z,9.60
2023-05-25T08:17:17.732Z,9.80
2023-05-25T08:18:20.326Z,10.70
2023-05-25T08:19:22.625Z,10.50
2023-05-25T08:20:25.322Z,10.70
2023-05-25T08:21:27.954Z,9.50
2023-05-25T08:22:30.074Z,9.80
2023-05-25T08:23:32.513Z,9.20
2023-05-25T08:24:35.506Z,10.00
2023-05-25T08:25:38.438Z,10.00
2023-05-25T08:26:53.803Z,7.80
2023-05-25T08:27:46.028Z,8.00
2023-05-25T08:28:48.446Z,8.45
2023-05-25T08:29:50.821Z,8.00
2023-05-25T08:30:53.590Z,8.30
2023-05-25T08:31:55.837Z,8.60
2023-05-25T08:32:58.026Z,9.00
2023-05-25T08:34:02.134Z,9.80
2023-05-25T08:35:05.179Z,9.60
2023-05-25T08:36:09.814Z,10.00
2023-05-25T08:37:12.054Z,9.10
2023-05-25T08:38:15.430Z,9.50
2023-05-25T08:39:18.363Z,9.40
2023-05-25T08:40:22.878Z,10.80
2023-05-25T08:41:25.613Z,9.50
2023-05-25T08:42:29.869Z,11.20
2023-05-25T08:43:33.368Z,9.50
2023-05-25T08:44:36.915Z,7.20
2023-05-25T08:45:45.157Z,8.40
2023-05-25T08:46:51.475Z,9.40
2023-05-25T08:47:57.445Z,9.60
2023-05-25T08:49:06.513Z,8.30
2023-05-25T08:50:10.411Z,10.20
2023-05-25T08:51:16.529Z,11.30
2023-05-25T08:52:27.421Z,10.30
2023-05-25T08:53:39.463Z,11.20
2023-05-25T08:54:45.787Z,9.60
2023-05-25T08:55:51.051Z,8.90
2023-05-25T08:56:58.825Z,7.10
2023-05-25T08:58:10.920Z,9.00
2023-05-25T08:59:19.947Z,7.60
2023-05-25T09:00:33.166Z,7.60
2023-05-25T09:01:42.058Z,6.50
2023-05-25T09:02:57.632Z,6.40
2023-05-25T09:04:01.434Z,9.20
2023-05-25T09:05:04.997Z,8.70
2023-05-25T09:06:08.336Z,8.50
2023-05-25T09:07:11.950Z,9.30
2023-05-25T09:08:16.608Z,7.70
2023-05-25T09:09:19.490Z,7.60
2023-05-25T09:10:24.215Z,6.80
2023-05-25T09:11:38.785Z,6.60
2023-05-25T09:12:36.304Z,5.80
2023-05-25T09:13:39.512Z,7.20
2023-05-25T09:14:44.715Z,7.40
2023-05-25T09:15:47.995Z,8.30
2023-05-25T09:16:51.521Z,7.30
2023-05-25T09:17:53.915Z,6.20
2023-05-25T09:18:57.298Z,7.30
2023-05-25T09:20:00.192Z,6.90
2023-05-25T09:21:02.943Z,7.70
2023-05-25T09:22:14.918Z,7.73
2023-05-25T09:23:10.366Z,7.00
2023-05-25T09:24:15.289Z,6.00
2023-05-25T09:25:21.748Z,6.60
2023-05-25T09:26:24.783Z,8.10
2023-05-25T09:27:27.077Z,9.30
2023-05-25T09:28:31.514Z,7.40
2023-05-25T09:29:35.213Z,6.70
2023-05-25T09:30:37.638Z,5.60
2023-05-25T09:31:40.483Z,7.60
2023-05-25T09:32:42.784Z,7.45
2023-05-25T09:33:46.386Z,7.80
2023-05-25T09:34:49.593Z,2.60
2023-05-25T09:35:52.113Z,6.90
2023-05-25T09:36:56.953Z,7.27
2023-05-25T09:37:59.754Z,5.80
2023-05-25T09:39:03.035Z,6.40
2023-05-25T09:40:07.657Z,6.10
2023-05-25T09:41:12.558Z,7.40
2023-05-25T09:42:15.973Z,6.10
2023-05-25T09:43:32.276Z,7.20
2023-05-25T09:44:24.556Z,6.60
2023-05-25T09:45:26.668Z,7.30
2023-05-25T09:46:32.970Z,7.20
2023-05-25T09:47:37.801Z,9.30
2023-05-25T09:48:41.479Z,8.30
2023-05-25T09:49:47.312Z,7.10
2023-05-25T09:50:51.121Z,7.30
2023-05-25T09:51:53.524Z,8.30
2023-05-25T09:52:59.174Z,7.70
2023-05-25T09:54:01.642Z,6.50
2023-05-25T09:55:09.213Z,6.30
2023-05-25T09:56:13.025Z,7.90
2023-05-25T09:57:16.288Z,7.00
2023-05-25T09:58:18.815Z,7.30
2023-05-25T09:59:24.980Z,8.00
2023-05-25T10:00:27.800Z,7.40
2023-05-25T10:01:33.832Z,8.10
2023-05-25T10:02:36.602Z,7.60
2023-05-25T10:03:59.814Z,7.30
2023-05-25T10:04:51.650Z,6.20
2023-05-25T10:05:54.956Z,7.30
2023-05-25T10:06:59.635Z,7.30
2023-05-25T10:08:03.195Z,7.50
2023-05-25T10:09:08.219Z,6.80
2023-05-25T10:10:14.624Z,7.10
2023-05-25T10:11:17.735Z,7.10
2023-05-25T10:12:21.714Z,7.10
2023-05-25T10:13:26.655Z,7.50
2023-05-25T10:14:30.244Z,7.10
2023-05-25T10:15:33.733Z,6.10
2023-05-25T10:16:39.186Z,6.00
2023-05-25T10:17:46.732Z,7.50
2023-05-25T10:19:04.931Z,6.30
2023-05-25T10:20:10.162Z,6.30
2023-05-25T10:21:15.145Z,6.50
2023-05-25T10:22:28.174Z,5.60
2023-05-25T10:23:34.464Z,7.20
2023-05-25T10:24:55.864Z,6.10
2023-05-25T10:26:01.272Z,7.30
2023-05-25T10:27:18.404Z,6.20
2023-05-25T10:28:30.751Z,6.50
2023-05-25T10:29:35.456Z,7.30
2023-05-25T10:30:39.452Z,6.40
2023-05-25T10:31:42.885Z,6.50
2023-05-25T10:32:48.826Z,5.90
2023-05-25T10:33:52.706Z,3.70
2023-05-25T10:34:57.128Z,6.90
2023-05-25T10:36:10.202Z,6.60
2023-05-25T10:37:08.313Z,5.70
2023-05-25T10:38:12.229Z,4.70
2023-05-25T10:39:15.522Z,5.30
2023-05-25T10:40:22.301Z,6.80
2023-05-25T10:41:26.018Z,5.50
2023-05-25T10:42:29.237Z,6.45
2023-05-25T10:43:32.576Z,6.80
2023-05-25T10:44:35.802Z,6.10
2023-05-25T10:45:38.122Z,6.20
2023-05-25T10:46:41.397Z,6.80
2023-05-25T10:47:45.742Z,5.50
2023-05-25T10:48:49.759Z,6.40
2023-05-25T10:49:54.720Z,5.80
2023-05-25T10:50:57.263Z,6.00
2023-05-25T10:52:00.635Z,5.00
2023-05-25T10:53:07.502Z,6.10
2023-05-25T10:54:14.369Z,6.40
2023-05-25T10:55:16.766Z,6.00
2023-05-25T10:56:19.073Z,5.80
2023-05-25T10:57:23.403Z,6.00
2023-05-25T10:58:28.183Z,6.30
2023-05-25T10:59:30.383Z,6.00
2023-05-25T11:00:32.950Z,5.50
2023-05-25T11:01:39.323Z,6.30
2023-05-25T11:02:52.744Z,4.00
2023-05-25T11:04:07.574Z,6.50
2023-05-25T11:05:31.330Z,5.60
2023-05-25T11:06:40.697Z,6.50
2023-05-25T11:07:55.116Z,5.80
2023-05-25T11:09:00.565Z,5.20
2023-05-25T11:10:03.646Z,5.90
2023-05-25T11:11:06.044Z,6.60
2023-05-25T11:12:08.915Z,7.10
2023-05-25T11:13:33.762Z,5.82
2023-05-25T11:14:41.216Z,6.40
2023-05-25T11:15:45.117Z,7.60
2023-05-25T11:17:15.199Z,6.80
2023-05-25T11:18:19.223Z,8.00
2023-05-25T11:19:22.666Z,6.70
2023-05-25T11:20:28.458Z,7.00
2023-05-25T11:21:37.077Z,6.70
2023-05-25T11:22:40.262Z,7.40
2023-05-25T11:24:02.367Z,7.40
2023-05-25T11:26:33.777Z,7.60
2023-05-25T11:27:40.167Z,4.80
2023-05-25T11:28:46.688Z,6.60
2023-05-25T11:29:53.254Z,7.40
2023-05-25T11:30:58.277Z,6.50
2023-05-25T11:32:02.560Z,7.00
2023-05-25T11:33:06.905Z,6.50
2023-05-25T11:34:11.609Z,6.80
2023-05-25T11:35:14.023Z,8.20
2023-05-25T11:36:19.159Z,7.40
2023-05-25T11:37:26.930Z,7.70
2023-05-25T11:38:30.704Z,7.00
2023-05-25T11:39:33.019Z,5.30
2023-05-25T11:40:38.307Z,6.40
2023-05-25T11:41:42.305Z,4.00
2023-05-25T11:42:47.809Z,7.30
2023-05-25T11:43:53.824Z,7.40
2023-05-25T11:44:56.631Z,6.60
2023-05-25T11:45:59.863Z,7.55
2023-05-25T11:47:12.089Z,8.60
2023-05-25T11:48:16.567Z,7.10
2023-05-25T11:49:21.171Z,7.70
2023-05-25T11:50:23.574Z,6.10
2023-05-25T11:51:30.247Z,7.20
2023-05-25T11:52:32.764Z,6.80
2023-05-25T11:53:37.059Z,6.55
2023-05-25T11:54:41.722Z,7.60
2023-05-25T11:55:48.040Z,8.90
2023-05-25T11:56:50.740Z,10.50
2023-05-25T11:57:57.517Z,8.10
2023-05-25T11:59:00.337Z,7.90
2023-05-25T12:00:05.588Z,7.09
2023-05-25T12:01:20.421Z,7.90
2023-05-25T12:02:24.089Z,8.40
2023-05-25T12:03:34.127Z,10.00
2023-05-25T12:04:36.666Z,5.40
2023-05-25T12:05:39.506Z,6.64
2023-05-25T12:06:42.318Z,7.90
2023-05-25T12:07:47.219Z,7.70
2023-05-25T12:08:49.726Z,7.00
2023-05-25T12:09:54.343Z,8.10
2023-05-25T12:10:58.633Z,7.30
2023-05-25T12:12:03.440Z,8.20
2023-05-25T12:13:08.058Z,7.40
2023-05-25T12:14:10.824Z,8.50
2023-05-25T12:15:18.283Z,7.27
2023-05-25T12:16:20.780Z,8.10
2023-05-25T12:17:23.331Z,8.00
2023-05-25T12:18:28.779Z,9.00
2023-05-25T12:19:31.743Z,5.50
2023-05-25T12:20:35.594Z,7.40
2023-05-25T12:21:42.171Z,8.50
2023-05-25T12:22:45.783Z,9.20
2023-05-25T12:23:50.819Z,8.80
2023-05-25T12:24:54.132Z,9.70
2023-05-25T12:26:11.646Z,8.60
2023-05-25T12:27:20.511Z,8.80
2023-05-25T12:28:22.928Z,8.40
2023-05-25T12:29:25.820Z,10.00
2023-05-25T12:30:28.232Z,9.70
2023-05-25T12:31:33.645Z,8.10
2023-05-25T12:32:53.754Z,7.70
2023-05-25T12:34:07.590Z,7.70
2023-05-25T12:35:10.762Z,9.60
2023-05-25T12:36:13.679Z,8.10
2023-05-25T12:37:22.759Z,8.40
2023-05-25T12:38:24.954Z,7.90
2023-05-25T12:39:35.267Z,8.40
2023-05-25T12:40:37.600Z,7.40
2023-05-25T12:41:49.661Z,8.00
2023-05-25T12:42:56.757Z,8.40
2023-05-25T12:43:59.152Z,9.50
2023-05-25T12:45:01.552Z,9.60
2023-05-25T12:46:03.976Z,9.20
2023-05-25T12:47:23.731Z,7.30
2023-05-25T12:48:28.332Z,8.90
2023-05-25T12:49:32.590Z,8.40
2023-05-25T12:50:37.049Z,7.10
2023-05-25T12:51:40.763Z,9.80
2023-05-25T12:52:45.972Z,8.20
2023-05-25T12:53:51.740Z,8.90
2023-05-25T12:54:54.405Z,8.70
2023-05-25T12:56:02.855Z,7.45
2023-05-25T12:57:06.466Z,8.70
2023-05-25T12:58:12.351Z,8.50
2023-05-25T12:59:14.951Z,9.70
2023-05-25T13:00:18.022Z,9.20
2023-05-25T13:01:20.450Z,9.20
2023-05-25T13:02:22.783Z,8.50
2023-05-25T13:03:26.184Z,8.80
2023-05-25T13:04:29.613Z,9.10
2023-05-25T13:05:35.634Z,7.90
2023-05-25T13:06:38.548Z,7.50
2023-05-25T13:07:41.869Z,10.30
2023-05-25T13:08:43.987Z,8.20
2023-05-25T13:09:46.872Z,7.40
2023-05-25T13:10:51.473Z,8.45
2023-05-25T13:11:58.136Z,7.50
2023-05-25T13:13:01.004Z,8.10
2023-05-25T13:14:04.217Z,8.50
2023-05-25T13:15:07.494Z,6.80
2023-05-25T13:16:10.006Z,6.20
2023-05-25T13:17:13.436Z,7.20
2023-05-25T13:18:15.892Z,7.10
2023-05-25T13:19:19.858Z,6.40
2023-05-25T13:20:24.408Z,7.90
2023-05-25T13:21:26.664Z,9.30
2023-05-25T13:22:29.860Z,6.40
2023-05-25T13:23:32.183Z,7.70
2023-05-25T13:24:34.428Z,6.80
2023-05-25T13:25:37.662Z,10.10
2023-05-25T13:26:40.102Z,8.20
2023-05-25T13:27:45.303Z,7.10
2023-05-25T13:28:48.786Z,7.20
2023-05-25T13:29:54.851Z,8.50
2023-05-25T13:30:57.328Z,7.80
2023-05-25T13:31:59.997Z,7.60
2023-05-25T13:33:02.479Z,6.80
2023-05-25T13:34:04.871Z,7.80
2023-05-25T13:35:07.733Z,6.60
2023-05-25T13:36:11.221Z,7.70
2023-05-25T13:37:13.523Z,7.80
2023-05-25T13:38:17.385Z,8.60
2023-05-25T13:39:21.361Z,7.60
2023-05-25T13:40:23.878Z,7.50
2023-05-25T13:41:27.642Z,8.10
2023-05-25T13:42:30.985Z,7.50
2023-05-25T13:43:33.416Z,6.90
2023-05-25T13:44:35.995Z,8.10
2023-05-25T13:45:38.843Z,7.91
2023-05-25T13:46:41.307Z,6.00
2023-05-25T13:47:45.674Z,7.20
2023-05-25T13:48:47.770Z,7.30
2023-05-25T13:49:49.979Z,6.67
2023-05-25T13:50:52.494Z,6.70
2023-05-25T13:51:54.731Z,5.40
2023-05-25T13:52:56.974Z,5.50
2023-05-25T13:54:00.475Z,6.30
2023-05-25T13:55:03.138Z,5.60
2023-05-25T13:56:06.250Z,7.40
2023-05-25T13:57:08.812Z,5.50
2023-05-25T13:58:12.186Z,5.80
2023-05-25T13:59:14.460Z,6.20
2023-05-25T14:00:18.331Z,5.60
2023-05-25T14:01:21.062Z,5.70
2023-05-25T14:02:23.790Z,4.45
2023-05-25T14:03:26.262Z,6.18
2023-05-25T14:04:28.712Z,6.00
2023-05-25T14:05:30.932Z,6.00
2023-05-25T14:06:34.831Z,6.30
2023-05-25T14:07:39.682Z,5.90
2023-05-25T14:08:42.433Z,5.80
2023-05-25T14:09:45.768Z,6.10